LKNY weather

Nymburk Ul Ploch Airport
Nymburk, Central Bohemian Region, Czechia

Public forecast

Using degrees Celsius for public forecast. Weather courtesy of forecast.io.

METAR (pilot weather report)

Closest report is Čáslav Air Base, 18.7 nm (34.6 km) SE. Retrieved 2019/05/20 00:00 UTC (51 minutes ago):

LKCV 200000Z 36002KT CAVOK 13/11 Q1003 NOSIG RMK BLU BLU

TAF (pilot weather forecast)

Closest forecast is Čáslav Air Base, 18.7 nm (34.6 km) SE. Retrieved 2019/05/20 00:02 UTC (49 minutes ago):

TAF LKCV 192300Z 2000/2100 VRB02KT CAVOK TEMPO 2002/2005 3000 BR BECMG 2004/2007 6000 RA BKN012 OVC022 PROB30 TEMPO 2009/2013 16015G25KT 4000 TSRA SCT015CB BECMG 2013/2015 16010KT 9999 NSW BKN030 TEMPO 2013/2020 7000 SHRA BKN022